sensor_id;sensor_type;location;lat;lon;timestamp;P1;durP1;ratioP1;P2;durP2;ratioP2
9880;SDS011;4979;51.014;6.678;2023-07-13T00:01:11;4.53;;;1.88;;
9880;SDS011;4979;51.014;6.678;2023-07-13T00:03:38;7.18;;;2.03;;
9880;SDS011;4979;51.014;6.678;2023-07-13T00:06:06;4.05;;;1.40;;
9880;SDS011;4979;51.014;6.678;2023-07-13T00:08:33;7.72;;;2.13;;
9880;SDS011;4979;51.014;6.678;2023-07-13T00:11:00;5.90;;;1.70;;
9880;SDS011;4979;51.014;6.678;2023-07-13T00:13:27;5.90;;;1.80;;
9880;SDS011;4979;51.014;6.678;2023-07-13T00:15:54;5.78;;;1.60;;
9880;SDS011;4979;51.014;6.678;2023-07-13T00:18:21;4.30;;;1.77;;
9880;SDS011;4979;51.014;6.678;2023-07-13T00:20:46;3.60;;;1.40;;
9880;SDS011;4979;51.014;6.678;2023-07-13T00:23:12;3.03;;;1.35;;
9880;SDS011;4979;51.014;6.678;2023-07-13T00:25:38;3.75;;;1.70;;
9880;SDS011;4979;51.014;6.678;2023-07-13T00:28:03;5.38;;;2.10;;
9880;SDS011;4979;51.014;6.678;2023-07-13T00:30:29;3.38;;;1.45;;
9880;SDS011;4979;51.014;6.678;2023-07-13T00:32:54;7.05;;;1.90;;
9880;SDS011;4979;51.014;6.678;2023-07-13T00:35:20;3.90;;;1.55;;
9880;SDS011;4979;51.014;6.678;2023-07-13T00:37:46;5.90;;;1.70;;
9880;SDS011;4979;51.014;6.678;2023-07-13T00:40:12;3.85;;;1.33;;
9880;SDS011;4979;51.014;6.678;2023-07-13T00:42:39;4.70;;;1.83;;
9880;SDS011;4979;51.014;6.678;2023-07-13T00:47:36;4.95;;;1.40;;
9880;SDS011;4979;51.014;6.678;2023-07-13T00:50:03;4.30;;;1.70;;
9880;SDS011;4979;51.014;6.678;2023-07-13T00:52:30;6.50;;;1.60;;
9880;SDS011;4979;51.014;6.678;2023-07-13T00:54:56;4.43;;;1.35;;
9880;SDS011;4979;51.014;6.678;2023-07-13T00:57:23;3.92;;;1.50;;
9880;SDS011;4979;51.014;6.678;2023-07-13T00:59:51;5.22;;;1.77;;
9880;SDS011;4979;51.014;6.678;2023-07-13T01:02:20;4.55;;;1.70;;
9880;SDS011;4979;51.014;6.678;2023-07-13T01:04:46;3.25;;;1.40;;
9880;SDS011;4979;51.014;6.678;2023-07-13T01:07:12;4.22;;;1.80;;
9880;SDS011;4979;51.014;6.678;2023-07-13T01:09:38;4.47;;;1.70;;
9880;SDS011;4979;51.014;6.678;2023-07-13T01:12:04;6.35;;;1.98;;
9880;SDS011;4979;51.014;6.678;2023-07-13T01:14:30;7.63;;;1.90;;
9880;SDS011;4979;51.014;6.678;2023-07-13T01:16:56;4.82;;;1.65;;
9880;SDS011;4979;51.014;6.678;2023-07-13T01:19:40;11.05;;;2.45;;
9880;SDS011;4979;51.014;6.678;2023-07-13T01:22:13;6.60;;;1.50;;
9880;SDS011;4979;51.014;6.678;2023-07-13T01:24:41;5.72;;;1.83;;
9880;SDS011;4979;51.014;6.678;2023-07-13T01:27:08;2.95;;;1.42;;
9880;SDS011;4979;51.014;6.678;2023-07-13T01:29:36;7.07;;;1.55;;
9880;SDS011;4979;51.014;6.678;2023-07-13T01:32:07;7.78;;;1.60;;
9880;SDS011;4979;51.014;6.678;2023-07-13T01:34:34;6.22;;;1.55;;
9880;SDS011;4979;51.014;6.678;2023-07-13T01:37:00;5.13;;;1.75;;
9880;SDS011;4979;51.014;6.678;2023-07-13T01:39:26;4.45;;;1.75;;
9880;SDS011;4979;51.014;6.678;2023-07-13T01:41:51;3.53;;;1.70;;
9880;SDS011;4979;51.014;6.678;2023-07-13T01:44:17;5.68;;;1.73;;
9880;SDS011;4979;51.014;6.678;2023-07-13T01:46:42;6.60;;;2.53;;
9880;SDS011;4979;51.014;6.678;2023-07-13T01:49:08;6.30;;;1.67;;
9880;SDS011;4979;51.014;6.678;2023-07-13T01:51:33;4.32;;;1.85;;
9880;SDS011;4979;51.014;6.678;2023-07-13T01:53:59;5.75;;;1.88;;
9880;SDS011;4979;51.014;6.678;2023-07-13T01:56:24;4.72;;;1.70;;
9880;SDS011;4979;51.014;6.678;2023-07-13T01:58:50;7.60;;;1.65;;
9880;SDS011;4979;51.014;6.678;2023-07-13T02:01:17;2.22;;;1.60;;
9880;SDS011;4979;51.014;6.678;2023-07-13T02:03:42;8.48;;;1.90;;
9880;SDS011;4979;51.014;6.678;2023-07-13T02:06:08;6.43;;;1.95;;
9880;SDS011;4979;51.014;6.678;2023-07-13T02:08:33;4.63;;;2.05;;
9880;SDS011;4979;51.014;6.678;2023-07-13T02:10:59;5.50;;;1.58;;
9880;SDS011;4979;51.014;6.678;2023-07-13T02:13:25;5.47;;;1.50;;
9880;SDS011;4979;51.014;6.678;2023-07-13T02:15:51;3.08;;;1.50;;
9880;SDS011;4979;51.014;6.678;2023-07-13T02:18:17;8.38;;;2.33;;
9880;SDS011;4979;51.014;6.678;2023-07-13T02:20:43;4.70;;;1.85;;
9880;SDS011;4979;51.014;6.678;2023-07-13T02:23:09;4.30;;;1.58;;
9880;SDS011;4979;51.014;6.678;2023-07-13T02:25:35;4.50;;;1.70;;
9880;SDS011;4979;51.014;6.678;2023-07-13T02:28:00;4.63;;;1.63;;
9880;SDS011;4979;51.014;6.678;2023-07-13T02:30:26;3.83;;;1.40;;
9880;SDS011;4979;51.014;6.678;2023-07-13T02:32:54;4.47;;;1.65;;
9880;SDS011;4979;51.014;6.678;2023-07-13T02:35:20;4.13;;;1.83;;
9880;SDS011;4979;51.014;6.678;2023-07-13T02:37:46;7.38;;;1.83;;
9880;SDS011;4979;51.014;6.678;2023-07-13T02:40:12;7.72;;;1.92;;
9880;SDS011;4979;51.014;6.678;2023-07-13T02:42:38;8.88;;;1.73;;
9880;SDS011;4979;51.014;6.678;2023-07-13T02:45:04;3.55;;;1.23;;
9880;SDS011;4979;51.014;6.678;2023-07-13T02:47:31;4.43;;;1.58;;
9880;SDS011;4979;51.014;6.678;2023-07-13T02:49:57;7.60;;;2.22;;
9880;SDS011;4979;51.014;6.678;2023-07-13T02:52:23;9.35;;;1.92;;
9880;SDS011;4979;51.014;6.678;2023-07-13T02:54:48;7.97;;;2.05;;
9880;SDS011;4979;51.014;6.678;2023-07-13T02:57:14;2.83;;;1.83;;
9880;SDS011;4979;51.014;6.678;2023-07-13T02:59:39;5.80;;;1.58;;
9880;SDS011;4979;51.014;6.678;2023-07-13T03:02:05;5.22;;;2.03;;
9880;SDS011;4979;51.014;6.678;2023-07-13T03:04:30;5.28;;;1.67;;
9880;SDS011;4979;51.014;6.678;2023-07-13T03:06:56;5.35;;;1.63;;
9880;SDS011;4979;51.014;6.678;2023-07-13T03:09:23;3.55;;;1.80;;
9880;SDS011;4979;51.014;6.678;2023-07-13T03:11:51;6.55;;;2.17;;
9880;SDS011;4979;51.014;6.678;2023-07-13T03:14:18;4.28;;;1.42;;
9880;SDS011;4979;51.014;6.678;2023-07-13T03:16:44;5.28;;;2.08;;
9880;SDS011;4979;51.014;6.678;2023-07-13T03:19:09;9.13;;;2.40;;
9880;SDS011;4979;51.014;6.678;2023-07-13T03:21:35;7.05;;;2.00;;
9880;SDS011;4979;51.014;6.678;2023-07-13T03:24:00;6.90;;;2.08;;
9880;SDS011;4979;51.014;6.678;2023-07-13T03:26:26;3.75;;;1.58;;
9880;SDS011;4979;51.014;6.678;2023-07-13T03:28:52;5.57;;;1.92;;
9880;SDS011;4979;51.014;6.678;2023-07-13T03:31:18;3.95;;;1.70;;
9880;SDS011;4979;51.014;6.678;2023-07-13T03:33:45;3.83;;;1.83;;
9880;SDS011;4979;51.014;6.678;2023-07-13T03:36:14;5.90;;;2.13;;
9880;SDS011;4979;51.014;6.678;2023-07-13T03:38:53;6.50;;;2.05;;
9880;SDS011;4979;51.014;6.678;2023-07-13T03:41:20;4.25;;;1.77;;
9880;SDS011;4979;51.014;6.678;2023-07-13T03:43:47;7.43;;;2.10;;
9880;SDS011;4979;51.014;6.678;2023-07-13T03:46:13;6.30;;;1.67;;
9880;SDS011;4979;51.014;6.678;2023-07-13T03:48:39;8.65;;;1.92;;
9880;SDS011;4979;51.014;6.678;2023-07-13T03:51:09;7.50;;;2.17;;
9880;SDS011;4979;51.014;6.678;2023-07-13T03:53:38;4.57;;;2.10;;
9880;SDS011;4979;51.014;6.678;2023-07-13T03:56:04;4.35;;;1.88;;
9880;SDS011;4979;51.014;6.678;2023-07-13T04:00:56;8.85;;;1.77;;
9880;SDS011;4979;51.014;6.678;2023-07-13T04:03:22;4.97;;;1.95;;
9880;SDS011;4979;51.014;6.678;2023-07-13T04:05:48;2.83;;;1.60;;
9880;SDS011;4979;51.014;6.678;2023-07-13T04:08:14;4.35;;;1.75;;
9880;SDS011;4979;51.014;6.678;2023-07-13T04:10:40;4.50;;;2.40;;
9880;SDS011;4979;51.014;6.678;2023-07-13T04:13:05;9.63;;;2.40;;
9880;SDS011;4979;51.014;6.678;2023-07-13T04:15:31;4.88;;;2.03;;
9880;SDS011;4979;51.014;6.678;2023-07-13T04:17:57;5.03;;;2.33;;
9880;SDS011;4979;51.014;6.678;2023-07-13T04:20:24;6.32;;;2.40;;
9880;SDS011;4979;51.014;6.678;2023-07-13T04:22:50;4.38;;;2.15;;
9880;SDS011;4979;51.014;6.678;2023-07-13T04:25:18;4.95;;;2.28;;
9880;SDS011;4979;51.014;6.678;2023-07-13T04:27:44;5.88;;;1.95;;
9880;SDS011;4979;51.014;6.678;2023-07-13T04:30:09;3.60;;;1.85;;
9880;SDS011;4979;51.014;6.678;2023-07-13T04:32:35;6.65;;;2.00;;
9880;SDS011;4979;51.014;6.678;2023-07-13T04:35:00;8.05;;;2.45;;
9880;SDS011;4979;51.014;6.678;2023-07-13T04:37:26;9.00;;;1.98;;
9880;SDS011;4979;51.014;6.678;2023-07-13T04:39:52;4.78;;;2.20;;
9880;SDS011;4979;51.014;6.678;2023-07-13T04:42:18;6.93;;;2.03;;
9880;SDS011;4979;51.014;6.678;2023-07-13T04:44:47;5.20;;;1.90;;
9880;SDS011;4979;51.014;6.678;2023-07-13T04:47:16;4.43;;;2.00;;
9880;SDS011;4979;51.014;6.678;2023-07-13T04:49:42;4.13;;;1.98;;
9880;SDS011;4979;51.014;6.678;2023-07-13T04:52:07;4.75;;;1.85;;
9880;SDS011;4979;51.014;6.678;2023-07-13T04:54:33;4.90;;;1.90;;
9880;SDS011;4979;51.014;6.678;2023-07-13T04:56:59;4.20;;;1.85;;
9880;SDS011;4979;51.014;6.678;2023-07-13T04:59:25;4.85;;;2.00;;
9880;SDS011;4979;51.014;6.678;2023-07-13T05:01:51;5.68;;;1.77;;
9880;SDS011;4979;51.014;6.678;2023-07-13T05:04:17;7.95;;;2.55;;
9880;SDS011;4979;51.014;6.678;2023-07-13T05:06:43;9.80;;;2.33;;
9880;SDS011;4979;51.014;6.678;2023-07-13T05:09:09;4.60;;;1.80;;
9880;SDS011;4979;51.014;6.678;2023-07-13T05:11:34;6.72;;;1.95;;
9880;SDS011;4979;51.014;6.678;2023-07-13T05:14:00;9.90;;;2.35;;
9880;SDS011;4979;51.014;6.678;2023-07-13T05:16:26;5.40;;;2.03;;
9880;SDS011;4979;51.014;6.678;2023-07-13T05:18:52;7.07;;;2.08;;
9880;SDS011;4979;51.014;6.678;2023-07-13T05:21:18;6.38;;;2.10;;
9880;SDS011;4979;51.014;6.678;2023-07-13T05:23:43;8.73;;;2.28;;
9880;SDS011;4979;51.014;6.678;2023-07-13T05:26:09;8.10;;;2.22;;
9880;SDS011;4979;51.014;6.678;2023-07-13T05:28:36;5.90;;;2.15;;
9880;SDS011;4979;51.014;6.678;2023-07-13T05:31:01;10.35;;;2.22;;
9880;SDS011;4979;51.014;6.678;2023-07-13T05:33:27;9.07;;;2.20;;
9880;SDS011;4979;51.014;6.678;2023-07-13T05:35:53;9.05;;;2.55;;
9880;SDS011;4979;51.014;6.678;2023-07-13T05:38:19;7.03;;;1.73;;
9880;SDS011;4979;51.014;6.678;2023-07-13T05:40:45;8.10;;;2.30;;
9880;SDS011;4979;51.014;6.678;2023-07-13T05:43:11;9.00;;;2.13;;
9880;SDS011;4979;51.014;6.678;2023-07-13T05:45:38;7.70;;;2.08;;
9880;SDS011;4979;51.014;6.678;2023-07-13T05:48:04;5.45;;;2.20;;
9880;SDS011;4979;51.014;6.678;2023-07-13T05:50:29;6.85;;;2.60;;
9880;SDS011;4979;51.014;6.678;2023-07-13T05:52:55;5.32;;;2.00;;
9880;SDS011;4979;51.014;6.678;2023-07-13T05:55:21;6.07;;;2.20;;
9880;SDS011;4979;51.014;6.678;2023-07-13T05:57:47;9.02;;;2.10;;
9880;SDS011;4979;51.014;6.678;2023-07-13T06:00:13;7.30;;;2.20;;
9880;SDS011;4979;51.014;6.678;2023-07-13T06:02:39;6.50;;;2.40;;
9880;SDS011;4979;51.014;6.678;2023-07-13T06:05:05;5.28;;;2.00;;
9880;SDS011;4979;51.014;6.678;2023-07-13T06:07:30;9.13;;;2.42;;
9880;SDS011;4979;51.014;6.678;2023-07-13T06:09:56;8.60;;;2.83;;
9880;SDS011;4979;51.014;6.678;2023-07-13T06:12:21;6.38;;;2.47;;
9880;SDS011;4979;51.014;6.678;2023-07-13T06:14:47;8.57;;;2.40;;
9880;SDS011;4979;51.014;6.678;2023-07-13T06:17:13;6.47;;;2.42;;
9880;SDS011;4979;51.014;6.678;2023-07-13T06:19:38;5.05;;;2.40;;
9880;SDS011;4979;51.014;6.678;2023-07-13T06:22:04;5.88;;;2.58;;
9880;SDS011;4979;51.014;6.678;2023-07-13T06:24:30;12.25;;;2.55;;
9880;SDS011;4979;51.014;6.678;2023-07-13T06:26:56;5.50;;;2.00;;
9880;SDS011;4979;51.014;6.678;2023-07-13T06:29:21;7.50;;;2.15;;
9880;SDS011;4979;51.014;6.678;2023-07-13T06:31:47;7.15;;;2.38;;
9880;SDS011;4979;51.014;6.678;2023-07-13T06:34:12;9.38;;;3.10;;
9880;SDS011;4979;51.014;6.678;2023-07-13T06:36:38;4.82;;;2.13;;
9880;SDS011;4979;51.014;6.678;2023-07-13T06:39:04;9.27;;;2.70;;
9880;SDS011;4979;51.014;6.678;2023-07-13T06:41:31;6.45;;;2.50;;
9880;SDS011;4979;51.014;6.678;2023-07-13T06:43:58;4.65;;;2.30;;
9880;SDS011;4979;51.014;6.678;2023-07-13T06:46:24;6.13;;;2.42;;
9880;SDS011;4979;51.014;6.678;2023-07-13T06:48:50;8.05;;;2.70;;
9880;SDS011;4979;51.014;6.678;2023-07-13T06:51:15;5.75;;;2.58;;
9880;SDS011;4979;51.014;6.678;2023-07-13T06:53:41;6.82;;;2.30;;
9880;SDS011;4979;51.014;6.678;2023-07-13T06:56:08;8.25;;;2.72;;
9880;SDS011;4979;51.014;6.678;2023-07-13T06:58:35;8.65;;;2.35;;
9880;SDS011;4979;51.014;6.678;2023-07-13T07:01:01;6.28;;;2.40;;
9880;SDS011;4979;51.014;6.678;2023-07-13T07:03:27;6.97;;;2.30;;
9880;SDS011;4979;51.014;6.678;2023-07-13T07:05:53;7.28;;;2.22;;
9880;SDS011;4979;51.014;6.678;2023-07-13T07:08:19;6.00;;;2.15;;
9880;SDS011;4979;51.014;6.678;2023-07-13T07:10:45;11.20;;;2.40;;
9880;SDS011;4979;51.014;6.678;2023-07-13T07:13:11;6.03;;;2.53;;
9880;SDS011;4979;51.014;6.678;2023-07-13T07:15:37;8.50;;;3.00;;
9880;SDS011;4979;51.014;6.678;2023-07-13T07:18:02;5.88;;;2.33;;
9880;SDS011;4979;51.014;6.678;2023-07-13T07:20:28;4.53;;;2.50;;
9880;SDS011;4979;51.014;6.678;2023-07-13T07:22:55;8.45;;;2.47;;
9880;SDS011;4979;51.014;6.678;2023-07-13T07:25:21;7.35;;;2.45;;
9880;SDS011;4979;51.014;6.678;2023-07-13T07:27:46;5.57;;;2.08;;
9880;SDS011;4979;51.014;6.678;2023-07-13T07:30:12;8.05;;;2.63;;
9880;SDS011;4979;51.014;6.678;2023-07-13T07:32:38;6.55;;;2.28;;
9880;SDS011;4979;51.014;6.678;2023-07-13T07:35:04;7.38;;;3.03;;
9880;SDS011;4979;51.014;6.678;2023-07-13T07:37:29;10.98;;;2.53;;
9880;SDS011;4979;51.014;6.678;2023-07-13T07:39:55;10.52;;;2.70;;
9880;SDS011;4979;51.014;6.678;2023-07-13T07:42:21;6.38;;;2.10;;
9880;SDS011;4979;51.014;6.678;2023-07-13T07:44:46;7.07;;;3.10;;
9880;SDS011;4979;51.014;6.678;2023-07-13T07:47:12;8.38;;;2.85;;
9880;SDS011;4979;51.014;6.678;2023-07-13T07:49:37;4.63;;;2.22;;
9880;SDS011;4979;51.014;6.678;2023-07-13T07:52:03;8.70;;;2.47;;
9880;SDS011;4979;51.014;6.678;2023-07-13T07:54:29;7.50;;;2.90;;
9880;SDS011;4979;51.014;6.678;2023-07-13T07:56:55;9.98;;;2.92;;
9880;SDS011;4979;51.014;6.678;2023-07-13T07:59:20;7.53;;;2.85;;
9880;SDS011;4979;51.014;6.678;2023-07-13T08:01:46;7.68;;;3.03;;
9880;SDS011;4979;51.014;6.678;2023-07-13T08:04:13;11.18;;;3.30;;
9880;SDS011;4979;51.014;6.678;2023-07-13T08:06:38;7.28;;;2.97;;
9880;SDS011;4979;51.014;6.678;2023-07-13T08:09:04;10.82;;;3.15;;
9880;SDS011;4979;51.014;6.678;2023-07-13T08:11:29;5.85;;;2.42;;
9880;SDS011;4979;51.014;6.678;2023-07-13T08:13:55;6.53;;;3.22;;
9880;SDS011;4979;51.014;6.678;2023-07-13T08:16:21;7.68;;;3.30;;
9880;SDS011;4979;51.014;6.678;2023-07-13T08:18:47;6.93;;;2.60;;
9880;SDS011;4979;51.014;6.678;2023-07-13T08:21:13;11.35;;;3.22;;
9880;SDS011;4979;51.014;6.678;2023-07-13T08:23:39;10.10;;;3.05;;
9880;SDS011;4979;51.014;6.678;2023-07-13T08:26:04;7.65;;;2.38;;
9880;SDS011;4979;51.014;6.678;2023-07-13T08:28:30;6.55;;;2.30;;
9880;SDS011;4979;51.014;6.678;2023-07-13T08:31:04;6.57;;;2.47;;
9880;SDS011;4979;51.014;6.678;2023-07-13T08:33:32;6.30;;;2.38;;
9880;SDS011;4979;51.014;6.678;2023-07-13T08:35:59;8.20;;;2.47;;
9880;SDS011;4979;51.014;6.678;2023-07-13T08:38:24;3.67;;;2.20;;
9880;SDS011;4979;51.014;6.678;2023-07-13T08:40:54;6.28;;;2.15;;
9880;SDS011;4979;51.014;6.678;2023-07-13T08:43:33;5.75;;;2.63;;
9880;SDS011;4979;51.014;6.678;2023-07-13T08:46:18;8.30;;;2.50;;
9880;SDS011;4979;51.014;6.678;2023-07-13T08:48:46;9.75;;;2.72;;
9880;SDS011;4979;51.014;6.678;2023-07-13T08:51:27;8.63;;;2.67;;
9880;SDS011;4979;51.014;6.678;2023-07-13T08:56:50;5.95;;;2.38;;
9880;SDS011;4979;51.014;6.678;2023-07-13T08:59:18;8.75;;;2.30;;
9880;SDS011;4979;51.014;6.678;2023-07-13T09:04:21;9.35;;;2.88;;
9880;SDS011;4979;51.014;6.678;2023-07-13T09:06:56;7.20;;;2.50;;
9880;SDS011;4979;51.014;6.678;2023-07-13T09:09:40;7.28;;;2.25;;
9880;SDS011;4979;51.014;6.678;2023-07-13T09:12:31;6.80;;;2.30;;
9880;SDS011;4979;51.014;6.678;2023-07-13T09:17:49;6.80;;;2.25;;
9880;SDS011;4979;51.014;6.678;2023-07-13T09:20:30;5.50;;;2.17;;
9880;SDS011;4979;51.014;6.678;2023-07-13T09:23:04;4.40;;;2.05;;
9880;SDS011;4979;51.014;6.678;2023-07-13T09:25:38;4.57;;;2.42;;
9880;SDS011;4979;51.014;6.678;2023-07-13T09:28:17;7.63;;;2.65;;
9880;SDS011;4979;51.014;6.678;2023-07-13T09:33:37;8.00;;;2.33;;
9880;SDS011;4979;51.014;6.678;2023-07-13T09:38:58;7.57;;;2.45;;
9880;SDS011;4979;51.014;6.678;2023-07-13T09:44:38;7.40;;;2.72;;
9880;SDS011;4979;51.014;6.678;2023-07-13T09:47:20;5.53;;;2.35;;
9880;SDS011;4979;51.014;6.678;2023-07-13T09:49:59;6.50;;;2.55;;
9880;SDS011;4979;51.014;6.678;2023-07-13T09:52:26;7.95;;;2.70;;
9880;SDS011;4979;51.014;6.678;2023-07-13T09:54:55;4.38;;;2.00;;
9880;SDS011;4979;51.014;6.678;2023-07-13T09:57:26;6.22;;;1.92;;
9880;SDS011;4979;51.014;6.678;2023-07-13T09:59:53;4.90;;;1.92;;
9880;SDS011;4979;51.014;6.678;2023-07-13T10:02:27;7.35;;;2.10;;
9880;SDS011;4979;51.014;6.678;2023-07-13T10:07:40;4.88;;;2.30;;
9880;SDS011;4979;51.014;6.678;2023-07-13T10:10:18;5.63;;;2.30;;
9880;SDS011;4979;51.014;6.678;2023-07-13T10:12:49;3.95;;;2.28;;
9880;SDS011;4979;51.014;6.678;2023-07-13T10:15:18;7.05;;;2.35;;
9880;SDS011;4979;51.014;6.678;2023-07-13T10:17:47;5.47;;;2.50;;
9880;SDS011;4979;51.014;6.678;2023-07-13T10:20:14;4.03;;;2.00;;
9880;SDS011;4979;51.014;6.678;2023-07-13T10:22:58;5.70;;;2.17;;
9880;SDS011;4979;51.014;6.678;2023-07-13T10:25:28;3.85;;;2.13;;
9880;SDS011;4979;51.014;6.678;2023-07-13T10:30:52;4.72;;;2.17;;
9880;SDS011;4979;51.014;6.678;2023-07-13T10:33:20;6.78;;;2.25;;
9880;SDS011;4979;51.014;6.678;2023-07-13T10:35:47;5.72;;;2.05;;
9880;SDS011;4979;51.014;6.678;2023-07-13T10:38:22;3.30;;;1.73;;
9880;SDS011;4979;51.014;6.678;2023-07-13T10:43:36;3.92;;;1.95;;
9880;SDS011;4979;51.014;6.678;2023-07-13T10:46:07;4.32;;;2.00;;
9880;SDS011;4979;51.014;6.678;2023-07-13T10:48:37;4.45;;;1.77;;
9880;SDS011;4979;51.014;6.678;2023-07-13T10:51:09;5.78;;;2.28;;
9880;SDS011;4979;51.014;6.678;2023-07-13T10:53:44;6.03;;;2.17;;
9880;SDS011;4979;51.014;6.678;2023-07-13T10:59:09;8.77;;;1.77;;
9880;SDS011;4979;51.014;6.678;2023-07-13T11:01:40;3.83;;;1.70;;
9880;SDS011;4979;51.014;6.678;2023-07-13T11:04:13;5.03;;;2.00;;
9880;SDS011;4979;51.014;6.678;2023-07-13T11:06:40;3.28;;;1.90;;
9880;SDS011;4979;51.014;6.678;2023-07-13T11:12:06;8.07;;;2.15;;
9880;SDS011;4979;51.014;6.678;2023-07-13T11:17:24;5.90;;;2.30;;
9880;SDS011;4979;51.014;6.678;2023-07-13T11:25:45;7.03;;;2.20;;
9880;SDS011;4979;51.014;6.678;2023-07-13T11:30:40;6.50;;;1.98;;
9880;SDS011;4979;51.014;6.678;2023-07-13T11:33:25;6.35;;;2.50;;
9880;SDS011;4979;51.014;6.678;2023-07-13T11:36:04;5.05;;;1.85;;
9880;SDS011;4979;51.014;6.678;2023-07-13T11:41:21;7.20;;;2.25;;
9880;SDS011;4979;51.014;6.678;2023-07-13T11:43:55;6.72;;;2.55;;
9880;SDS011;4979;51.014;6.678;2023-07-13T11:46:31;3.65;;;1.85;;
9880;SDS011;4979;51.014;6.678;2023-07-13T11:48:56;4.90;;;2.17;;
9880;SDS011;4979;51.014;6.678;2023-07-13T11:51:27;4.03;;;2.15;;
9880;SDS011;4979;51.014;6.678;2023-07-13T11:54:03;7.55;;;2.30;;
9880;SDS011;4979;51.014;6.678;2023-07-13T11:56:42;6.50;;;1.80;;
9880;SDS011;4979;51.014;6.678;2023-07-13T11:59:10;5.85;;;2.28;;
9880;SDS011;4979;51.014;6.678;2023-07-13T12:01:42;9.68;;;2.45;;
9880;SDS011;4979;51.014;6.678;2023-07-13T12:04:22;5.00;;;2.17;;
9880;SDS011;4979;51.014;6.678;2023-07-13T12:06:56;5.15;;;1.70;;
9880;SDS011;4979;51.014;6.678;2023-07-13T12:09:28;6.80;;;2.00;;
9880;SDS011;4979;51.014;6.678;2023-07-13T12:11:59;5.05;;;2.00;;
9880;SDS011;4979;51.014;6.678;2023-07-13T12:14:29;4.82;;;2.22;;
9880;SDS011;4979;51.014;6.678;2023-07-13T12:16:59;6.57;;;1.90;;
9880;SDS011;4979;51.014;6.678;2023-07-13T12:19:25;5.25;;;1.60;;
9880;SDS011;4979;51.014;6.678;2023-07-13T12:21:59;3.67;;;1.77;;
9880;SDS011;4979;51.014;6.678;2023-07-13T12:24:27;3.75;;;1.73;;
9880;SDS011;4979;51.014;6.678;2023-07-13T12:26:55;3.97;;;2.05;;
9880;SDS011;4979;51.014;6.678;2023-07-13T12:29:27;3.40;;;1.63;;
9880;SDS011;4979;51.014;6.678;2023-07-13T12:31:53;6.85;;;2.13;;
9880;SDS011;4979;51.014;6.678;2023-07-13T12:34:28;9.18;;;2.10;;
9880;SDS011;4979;51.014;6.678;2023-07-13T12:39:25;3.92;;;2.03;;
9880;SDS011;4979;51.014;6.678;2023-07-13T12:45:01;4.32;;;1.90;;
9880;SDS011;4979;51.014;6.678;2023-07-13T12:47:48;4.75;;;1.63;;
9880;SDS011;4979;51.014;6.678;2023-07-13T12:50:19;4.85;;;1.55;;
9880;SDS011;4979;51.014;6.678;2023-07-13T12:52:52;5.35;;;1.50;;
9880;SDS011;4979;51.014;6.678;2023-07-13T12:55:24;3.20;;;1.83;;
9880;SDS011;4979;51.014;6.678;2023-07-13T12:57:56;3.35;;;1.48;;
9880;SDS011;4979;51.014;6.678;2023-07-13T13:03:09;2.60;;;1.65;;
9880;SDS011;4979;51.014;6.678;2023-07-13T13:05:37;4.82;;;1.85;;
9880;SDS011;4979;51.014;6.678;2023-07-13T13:08:03;4.95;;;1.73;;
9880;SDS011;4979;51.014;6.678;2023-07-13T13:10:32;3.53;;;1.80;;
9880;SDS011;4979;51.014;6.678;2023-07-13T13:13:06;4.03;;;1.85;;
9880;SDS011;4979;51.014;6.678;2023-07-13T13:15:35;4.93;;;2.00;;
9880;SDS011;4979;51.014;6.678;2023-07-13T13:18:02;4.47;;;1.67;;
9880;SDS011;4979;51.014;6.678;2023-07-13T13:20:32;5.90;;;2.08;;
9880;SDS011;4979;51.014;6.678;2023-07-13T13:22:57;5.22;;;1.88;;
9880;SDS011;4979;51.014;6.678;2023-07-13T13:25:28;3.25;;;1.83;;
9880;SDS011;4979;51.014;6.678;2023-07-13T13:27:56;6.50;;;1.90;;
9880;SDS011;4979;51.014;6.678;2023-07-13T13:30:27;3.53;;;1.80;;
9880;SDS011;4979;51.014;6.678;2023-07-13T13:32:54;4.03;;;1.70;;
9880;SDS011;4979;51.014;6.678;2023-07-13T13:35:20;3.85;;;1.67;;
9880;SDS011;4979;51.014;6.678;2023-07-13T13:37:46;3.65;;;1.80;;
9880;SDS011;4979;51.014;6.678;2023-07-13T13:40:20;3.75;;;1.70;;
9880;SDS011;4979;51.014;6.678;2023-07-13T13:42:54;3.47;;;1.63;;
9880;SDS011;4979;51.014;6.678;2023-07-13T13:45:21;4.68;;;1.80;;
9880;SDS011;4979;51.014;6.678;2023-07-13T13:47:47;4.10;;;1.92;;
9880;SDS011;4979;51.014;6.678;2023-07-13T13:50:19;6.25;;;1.77;;
9880;SDS011;4979;51.014;6.678;2023-07-13T13:52:58;2.67;;;1.52;;
9880;SDS011;4979;51.014;6.678;2023-07-13T13:55:24;3.50;;;1.58;;
9880;SDS011;4979;51.014;6.678;2023-07-13T13:57:50;3.85;;;1.67;;
9880;SDS011;4979;51.014;6.678;2023-07-13T14:00:16;2.42;;;1.67;;
9880;SDS011;4979;51.014;6.678;2023-07-13T14:02:48;4.53;;;1.90;;
9880;SDS011;4979;51.014;6.678;2023-07-13T14:05:18;3.38;;;1.70;;
9880;SDS011;4979;51.014;6.678;2023-07-13T14:07:46;2.75;;;1.63;;
9880;SDS011;4979;51.014;6.678;2023-07-13T14:10:13;4.93;;;1.80;;
9880;SDS011;4979;51.014;6.678;2023-07-13T14:12:41;2.67;;;1.40;;
9880;SDS011;4979;51.014;6.678;2023-07-13T14:15:13;5.45;;;1.80;;
9880;SDS011;4979;51.014;6.678;2023-07-13T14:17:47;3.70;;;1.70;;
9880;SDS011;4979;51.014;6.678;2023-07-13T14:20:15;6.22;;;1.73;;
9880;SDS011;4979;51.014;6.678;2023-07-13T14:22:42;5.90;;;2.17;;
9880;SDS011;4979;51.014;6.678;2023-07-13T14:25:14;4.53;;;1.90;;
9880;SDS011;4979;51.014;6.678;2023-07-13T14:27:41;4.10;;;1.90;;
9880;SDS011;4979;51.014;6.678;2023-07-13T14:30:15;5.50;;;1.73;;
9880;SDS011;4979;51.014;6.678;2023-07-13T14:32:43;6.13;;;2.10;;
9880;SDS011;4979;51.014;6.678;2023-07-13T14:35:12;6.40;;;1.90;;
9880;SDS011;4979;51.014;6.678;2023-07-13T14:37:39;3.70;;;1.58;;
9880;SDS011;4979;51.014;6.678;2023-07-13T14:40:13;2.80;;;1.88;;
9880;SDS011;4979;51.014;6.678;2023-07-13T14:42:39;4.97;;;1.80;;
9880;SDS011;4979;51.014;6.678;2023-07-13T14:45:05;3.80;;;1.88;;
9880;SDS011;4979;51.014;6.678;2023-07-13T14:47:36;7.07;;;1.85;;
9880;SDS011;4979;51.014;6.678;2023-07-13T14:50:02;5.07;;;1.80;;
9880;SDS011;4979;51.014;6.678;2023-07-13T14:52:30;5.00;;;2.20;;
9880;SDS011;4979;51.014;6.678;2023-07-13T14:54:55;6.45;;;2.83;;
9880;SDS011;4979;51.014;6.678;2023-07-13T14:57:21;5.68;;;1.95;;
9880;SDS011;4979;51.014;6.678;2023-07-13T14:59:47;4.35;;;1.73;;
9880;SDS011;4979;51.014;6.678;2023-07-13T15:04:43;5.50;;;1.90;;
9880;SDS011;4979;51.014;6.678;2023-07-13T15:07:09;8.88;;;2.17;;
9880;SDS011;4979;51.014;6.678;2023-07-13T15:09:36;5.65;;;1.52;;
9880;SDS011;4979;51.014;6.678;2023-07-13T15:12:02;5.35;;;2.17;;
9880;SDS011;4979;51.014;6.678;2023-07-13T15:14:28;3.58;;;1.77;;
9880;SDS011;4979;51.014;6.678;2023-07-13T15:16:54;6.43;;;1.80;;
9880;SDS011;4979;51.014;6.678;2023-07-13T15:19:21;4.63;;;2.13;;
9880;SDS011;4979;51.014;6.678;2023-07-13T15:21:48;5.32;;;1.65;;
9880;SDS011;4979;51.014;6.678;2023-07-13T15:24:14;2.92;;;1.48;;
9880;SDS011;4979;51.014;6.678;2023-07-13T15:26:40;4.97;;;1.80;;
9880;SDS011;4979;51.014;6.678;2023-07-13T15:29:10;11.05;;;2.47;;
9880;SDS011;4979;51.014;6.678;2023-07-13T15:31:36;9.27;;;2.50;;
9880;SDS011;4979;51.014;6.678;2023-07-13T15:34:04;12.70;;;2.55;;
9880;SDS011;4979;51.014;6.678;2023-07-13T15:36:42;11.20;;;2.53;;
9880;SDS011;4979;51.014;6.678;2023-07-13T15:39:10;22.77;;;3.63;;
9880;SDS011;4979;51.014;6.678;2023-07-13T15:41:43;19.75;;;3.67;;
9880;SDS011;4979;51.014;6.678;2023-07-13T15:44:27;10.30;;;2.70;;
9880;SDS011;4979;51.014;6.678;2023-07-13T15:46:55;7.93;;;2.55;;
9880;SDS011;4979;51.014;6.678;2023-07-13T15:49:21;8.93;;;2.50;;
9880;SDS011;4979;51.014;6.678;2023-07-13T15:51:47;6.95;;;2.25;;
9880;SDS011;4979;51.014;6.678;2023-07-13T15:54:14;6.68;;;2.40;;
9880;SDS011;4979;51.014;6.678;2023-07-13T15:56:42;17.70;;;2.83;;
9880;SDS011;4979;51.014;6.678;2023-07-13T15:59:10;5.82;;;2.38;;
9880;SDS011;4979;51.014;6.678;2023-07-13T16:01:39;6.57;;;2.03;;
9880;SDS011;4979;51.014;6.678;2023-07-13T16:04:07;7.57;;;2.60;;
9880;SDS011;4979;51.014;6.678;2023-07-13T16:06:36;7.43;;;2.08;;
9880;SDS011;4979;51.014;6.678;2023-07-13T16:09:05;7.55;;;2.10;;
9880;SDS011;4979;51.014;6.678;2023-07-13T16:11:33;4.18;;;1.95;;
9880;SDS011;4979;51.014;6.678;2023-07-13T16:14:00;6.45;;;2.05;;
9880;SDS011;4979;51.014;6.678;2023-07-13T16:16:27;6.85;;;1.95;;
9880;SDS011;4979;51.014;6.678;2023-07-13T16:18:58;6.95;;;2.03;;
9880;SDS011;4979;51.014;6.678;2023-07-13T16:21:27;3.53;;;1.80;;